AKDT,Max TemperatureF,Mean TemperatureF,Min TemperatureF,Max Dew PointF,MeanDew PointF,Min DewpointF,Max Humidity, Mean Humidity, Min Humidity, Max Sea Level PressureIn, Mean Sea Level PressureIn, Min Sea Level PressureIn, Max VisibilityMiles, Mean VisibilityMiles, Min VisibilityMiles, Max Wind SpeedMPH, Mean Wind SpeedMPH, Max Gust SpeedMPH,PrecipitationIn, CloudCover, Events, WindDirDegrees
2012-10-1,51,46,42,39,37,34,76,64,50,30.17,30.12,30.07,10,10,8,,,,0.00,8,,-1
2012-10-2,53,48,44,45,40,34,87,75,62,30.11,29.91,29.84,10,8,3,,,,0.00,8,,-1
2012-10-3,57,52,46,48,44,41,87,79,67,29.97,29.69,29.48,10,7,2,,,,0.00,8,,-1
2012-10-4,51,48,46,41,36,30,76,59,44,30.02,29.77,29.50,10,10,8,,,,0.00,7,,-1
2012-10-5,51,46,42,39,34,28,81,61,44,30.13,30.07,30.02,10,10,10,,,,0.00,3,,-1
2012-10-6,51,44,37,46,38,30,93,79,57,30.19,30.11,29.96,10,8,2,,,,0.00,5,,-1
2012-10-7,60,53,46,52,46,43,93,82,63,30.17,30.08,29.97,10,9,2,,,,0.00,7,,-1
2012-10-8,48,47,46,45,43,41,87,84,76,30.18,30.16,30.14,10,10,9,,,,0.00,8,,-1
2012-10-9,48,47,46,45,42,39,87,83,76,30.15,30.08,29.98,10,10,10,,,,0.00,7,,-1
2012-10-10,51,48,46,43,42,39,87,76,66,29.98,29.83,29.72,10,10,7,,,,0.00,3,,-1
2012-10-11,48,47,46,43,42,41,87,84,76,29.72,29.54,29.33,10,9,2,,,,0.00,8,,-1
2012-10-12,50,46,42,43,38,32,87,73,62,29.33,29.16,29.06,10,10,9,,,,0.00,7,,-1
2012-10-13,41,37,33,30,24,21,70,61,49,29.17,29.13,29.08,10,10,5,,,,0.00,4,,-1
2012-10-14,37,35,33,28,25,19,75,64,48,29.24,29.12,29.07,10,10,2,,,,0.00,7,,-1
2012-10-15,35,34,33,21,18,12,60,50,41,29.63,29.43,29.24,10,10,6,,,,0.00,7,,-1
2012-10-16,33,30,28,27,19,12,86,60,41,29.88,29.75,29.63,10,8,1,,,,0.00,7,,-1
2012-10-17,33,32,32,23,16,12,65,51,44,30.02,29.97,29.88,10,10,3,,,,0.00,8,,-1
2012-10-18,35,32,30,25,21,12,75,62,44,30.12,30.05,30.00,10,9,3,,,,0.00,8,,-1
2012-10-19,37,35,33,25,24,21,70,62,56,30.39,30.27,30.12,10,10,5,,,,0.00,7,,-1
2012-10-20,39,37,35,25,24,21,65,60,52,30.48,30.45,30.39,10,10,10,22,16,29,0.00,2,,258
2012-10-21,41,37,33,28,24,19,70,60,52,30.46,30.36,30.30,10,10,10,13,5,20,0.00,2,,270
2012-10-22,42,40,37,32,29,25,75,67,56,30.35,30.33,30.31,10,10,10,16,8,20,0.00,2,,267
2012-10-23,39,34,30,28,23,18,75,63,45,30.32,30.23,30.18,10,10,10,16,5,23,0.00,1,,250
2012-10-24,41,36,30,30,26,21,80,64,45,30.28,30.24,30.22,10,10,10,14,5,17,0.00,8,,75
2012-10-25,42,40,37,34,30,25,81,67,56,30.33,30.31,30.28,10,10,6,20,10,30,0.00,7,,70
2012-10-26,42,40,39,36,32,28,87,71,57,30.33,30.20,30.03,10,10,7,17,12,29,0.00,8,,67
2012-10-27,42,40,39,34,30,28,81,64,57,30.03,29.98,29.94,10,10,5,16,12,28,0.00,7,,72
2012-10-28,42,38,33,32,29,25,81,67,57,30.06,30.03,29.99,10,10,10,12,4,,0.00,3,,99
2012-10-29,42,37,32,30,25,19,75,61,49,30.11,30.08,30.05,10,10,10,26,7,34,0.00,1,,253
2012-10-30,37,32,28,28,19,12,70,59,51,30.17,30.10,29.97,10,10,6,23,15,39,0.00,6,,286
2012-10-31,30,26,21,21,14,9,80,59,40,29.97,29.77,29.61,10,9,1,20,11,29,0.00,7,,315